<?xml version="1.0" encoding="UTF-8" standalone="no" ?>
<gpx xmlns="http://www.topografix.com/GPX/1/1" xmlns:xsi="http://www.w3.org/2001/XMLSchema-instance" xsi:schemaLocation="http://www.topografix.com/GPX/1/1 http://www.topografix.com/GPX/1/1/gpx.xsd" version="1.1" creator="VisuGPX - https://www.visugpx.com">
  <metadata>
    <name>COL GRENOUZE</name>
  </metadata>
  <trk>
    <name><![CDATA[COL GRENOUZE]]></name>
    <trkseg>
      <trkpt lat="45.47686" lon="4.69728">
        <ele>624</ele>
        <time>2021-05-16T10:38:33+02:00</time>
      </trkpt>
      <trkpt lat="45.47725" lon="4.69822">
        <ele>631</ele>
        <time>2021-05-16T10:38:38+02:00</time>
      </trkpt>
      <trkpt lat="45.47733" lon="4.69857">
        <ele>635</ele>
        <time>2021-05-16T10:38:43+02:00</time>
      </trkpt>
      <trkpt lat="45.47731" lon="4.69889">
        <ele>636</ele>
        <time>2021-05-16T10:38:48+02:00</time>
      </trkpt>
      <trkpt lat="45.47733" lon="4.69916">
        <ele>638</ele>
        <time>2021-05-16T10:38:53+02:00</time>
      </trkpt>
      <trkpt lat="45.47736" lon="4.69953">
        <ele>640</ele>
        <time>2021-05-16T10:38:58+02:00</time>
      </trkpt>
      <trkpt lat="45.4774" lon="4.6996">
        <ele>641</ele>
        <time>2021-05-16T10:39:03+02:00</time>
      </trkpt>
      <trkpt lat="45.47757" lon="4.69955">
        <ele>644</ele>
        <time>2021-05-16T10:39:08+02:00</time>
      </trkpt>
      <trkpt lat="45.47775" lon="4.69948">
        <ele>646</ele>
        <time>2021-05-16T10:39:13+02:00</time>
      </trkpt>
      <trkpt lat="45.47789" lon="4.69954">
        <ele>648</ele>
        <time>2021-05-16T10:39:18+02:00</time>
      </trkpt>
      <trkpt lat="45.47888" lon="4.70142">
        <ele>666</ele>
        <time>2021-05-16T10:39:23+02:00</time>
      </trkpt>
      <trkpt lat="45.47897" lon="4.70153">
        <ele>669</ele>
        <time>2021-05-16T10:39:28+02:00</time>
      </trkpt>
      <trkpt lat="45.4794" lon="4.70219">
        <ele>677</ele>
        <time>2021-05-16T10:39:33+02:00</time>
      </trkpt>
      <trkpt lat="45.47966" lon="4.70267">
        <ele>683</ele>
        <time>2021-05-16T10:39:38+02:00</time>
      </trkpt>
      <trkpt lat="45.47977" lon="4.70302">
        <ele>688</ele>
        <time>2021-05-16T10:39:43+02:00</time>
      </trkpt>
      <trkpt lat="45.47992" lon="4.70326">
        <ele>694</ele>
        <time>2021-05-16T10:39:48+02:00</time>
      </trkpt>
      <trkpt lat="45.47995" lon="4.70363">
        <ele>699</ele>
        <time>2021-05-16T10:39:53+02:00</time>
      </trkpt>
      <trkpt lat="45.48003" lon="4.70395">
        <ele>705</ele>
        <time>2021-05-16T10:39:58+02:00</time>
      </trkpt>
      <trkpt lat="45.48008" lon="4.70419">
        <ele>708</ele>
        <time>2021-05-16T10:40:03+02:00</time>
      </trkpt>
      <trkpt lat="45.4803" lon="4.70449">
        <ele>714</ele>
        <time>2021-05-16T10:40:08+02:00</time>
      </trkpt>
      <trkpt lat="45.48045" lon="4.70474">
        <ele>719</ele>
        <time>2021-05-16T10:40:13+02:00</time>
      </trkpt>
      <trkpt lat="45.48052" lon="4.70499">
        <ele>723</ele>
        <time>2021-05-16T10:40:18+02:00</time>
      </trkpt>
      <trkpt lat="45.48054" lon="4.70532">
        <ele>728</ele>
        <time>2021-05-16T10:40:23+02:00</time>
      </trkpt>
      <trkpt lat="45.48055" lon="4.70554">
        <ele>732</ele>
        <time>2021-05-16T10:40:28+02:00</time>
      </trkpt>
      <trkpt lat="45.48071" lon="4.70598">
        <ele>742</ele>
        <time>2021-05-16T10:40:33+02:00</time>
      </trkpt>
      <trkpt lat="45.48081" lon="4.70626">
        <ele>749</ele>
        <time>2021-05-16T10:40:38+02:00</time>
      </trkpt>
      <trkpt lat="45.48088" lon="4.70644">
        <ele>752</ele>
        <time>2021-05-16T10:40:43+02:00</time>
      </trkpt>
      <trkpt lat="45.48091" lon="4.7067">
        <ele>756</ele>
        <time>2021-05-16T10:40:48+02:00</time>
      </trkpt>
      <trkpt lat="45.4809" lon="4.70695">
        <ele>758</ele>
        <time>2021-05-16T10:40:53+02:00</time>
      </trkpt>
      <trkpt lat="45.48097" lon="4.70716">
        <ele>760</ele>
        <time>2021-05-16T10:40:58+02:00</time>
      </trkpt>
      <trkpt lat="45.48105" lon="4.70738">
        <ele>762</ele>
        <time>2021-05-16T10:41:03+02:00</time>
      </trkpt>
      <trkpt lat="45.4811" lon="4.70754">
        <ele>763</ele>
        <time>2021-05-16T10:41:08+02:00</time>
      </trkpt>
      <trkpt lat="45.48118" lon="4.70795">
        <ele>765</ele>
        <time>2021-05-16T10:41:13+02:00</time>
      </trkpt>
      <trkpt lat="45.48129" lon="4.70814">
        <ele>767</ele>
        <time>2021-05-16T10:41:18+02:00</time>
      </trkpt>
      <trkpt lat="45.48138" lon="4.70829">
        <ele>770</ele>
        <time>2021-05-16T10:41:23+02:00</time>
      </trkpt>
      <trkpt lat="45.48157" lon="4.70842">
        <ele>772</ele>
        <time>2021-05-16T10:41:28+02:00</time>
      </trkpt>
      <trkpt lat="45.48173" lon="4.70861">
        <ele>772</ele>
        <time>2021-05-16T10:41:33+02:00</time>
      </trkpt>
      <trkpt lat="45.48185" lon="4.70877">
        <ele>771</ele>
        <time>2021-05-16T10:41:38+02:00</time>
      </trkpt>
      <trkpt lat="45.48215" lon="4.70905">
        <ele>771</ele>
        <time>2021-05-16T10:41:43+02:00</time>
      </trkpt>
      <trkpt lat="45.48226" lon="4.70903">
        <ele>773</ele>
        <time>2021-05-16T10:41:48+02:00</time>
      </trkpt>
      <trkpt lat="45.48241" lon="4.70908">
        <ele>774</ele>
        <time>2021-05-16T10:41:53+02:00</time>
      </trkpt>
      <trkpt lat="45.48264" lon="4.70915">
        <ele>775</ele>
        <time>2021-05-16T10:41:58+02:00</time>
      </trkpt>
      <trkpt lat="45.48286" lon="4.70914">
        <ele>775</ele>
        <time>2021-05-16T10:42:03+02:00</time>
      </trkpt>
      <trkpt lat="45.48302" lon="4.70927">
        <ele>773</ele>
        <time>2021-05-16T10:42:08+02:00</time>
      </trkpt>
      <trkpt lat="45.48313" lon="4.70943">
        <ele>771</ele>
        <time>2021-05-16T10:42:13+02:00</time>
      </trkpt>
      <trkpt lat="45.48315" lon="4.70959">
        <ele>768</ele>
        <time>2021-05-16T10:42:18+02:00</time>
      </trkpt>
      <trkpt lat="45.4832" lon="4.70967">
        <ele>767</ele>
        <time>2021-05-16T10:42:23+02:00</time>
      </trkpt>
      <trkpt lat="45.48331" lon="4.70966">
        <ele>768</ele>
        <time>2021-05-16T10:42:28+02:00</time>
      </trkpt>
      <trkpt lat="45.4836" lon="4.70955">
        <ele>765</ele>
        <time>2021-05-16T10:42:33+02:00</time>
      </trkpt>
      <trkpt lat="45.48439" lon="4.70923">
        <ele>754</ele>
        <time>2021-05-16T10:42:38+02:00</time>
      </trkpt>
      <trkpt lat="45.4847" lon="4.70902">
        <ele>748</ele>
        <time>2021-05-16T10:42:43+02:00</time>
      </trkpt>
      <trkpt lat="45.48501" lon="4.70873">
        <ele>742</ele>
        <time>2021-05-16T10:42:48+02:00</time>
      </trkpt>
      <trkpt lat="45.48527" lon="4.70854">
        <ele>738</ele>
        <time>2021-05-16T10:42:53+02:00</time>
      </trkpt>
      <trkpt lat="45.48556" lon="4.70837">
        <ele>733</ele>
        <time>2021-05-16T10:42:58+02:00</time>
      </trkpt>
      <trkpt lat="45.48579" lon="4.70823">
        <ele>729</ele>
        <time>2021-05-16T10:43:03+02:00</time>
      </trkpt>
      <trkpt lat="45.48618" lon="4.70807">
        <ele>723</ele>
        <time>2021-05-16T10:43:08+02:00</time>
      </trkpt>
      <trkpt lat="45.48655" lon="4.70808">
        <ele>719</ele>
        <time>2021-05-16T10:43:13+02:00</time>
      </trkpt>
      <trkpt lat="45.48726" lon="4.70839">
        <ele>717</ele>
        <time>2021-05-16T10:43:18+02:00</time>
      </trkpt>
      <trkpt lat="45.4874" lon="4.70853">
        <ele>716</ele>
        <time>2021-05-16T10:43:23+02:00</time>
      </trkpt>
      <trkpt lat="45.48771" lon="4.70924">
        <ele>704</ele>
        <time>2021-05-16T10:43:28+02:00</time>
      </trkpt>
      <trkpt lat="45.48811" lon="4.70997">
        <ele>684</ele>
        <time>2021-05-16T10:43:33+02:00</time>
      </trkpt>
      <trkpt lat="45.48848" lon="4.71034">
        <ele>669</ele>
        <time>2021-05-16T10:43:38+02:00</time>
      </trkpt>
      <trkpt lat="45.48858" lon="4.71056">
        <ele>662</ele>
        <time>2021-05-16T10:43:43+02:00</time>
      </trkpt>
      <trkpt lat="45.48878" lon="4.71099">
        <ele>650</ele>
        <time>2021-05-16T10:43:48+02:00</time>
      </trkpt>
      <trkpt lat="45.48885" lon="4.71125">
        <ele>646</ele>
        <time>2021-05-16T10:43:53+02:00</time>
      </trkpt>
      <trkpt lat="45.48898" lon="4.71091">
        <ele>645</ele>
        <time>2021-05-16T10:43:58+02:00</time>
      </trkpt>
      <trkpt lat="45.48913" lon="4.71074">
        <ele>644</ele>
        <time>2021-05-16T10:44:03+02:00</time>
      </trkpt>
      <trkpt lat="45.48995" lon="4.71104">
        <ele>620</ele>
        <time>2021-05-16T10:44:08+02:00</time>
      </trkpt>
      <trkpt lat="45.49027" lon="4.71113">
        <ele>617</ele>
        <time>2021-05-16T10:44:13+02:00</time>
      </trkpt>
      <trkpt lat="45.49063" lon="4.7115">
        <ele>605</ele>
        <time>2021-05-16T10:44:18+02:00</time>
      </trkpt>
      <trkpt lat="45.49093" lon="4.71171">
        <ele>596</ele>
        <time>2021-05-16T10:44:23+02:00</time>
      </trkpt>
      <trkpt lat="45.49135" lon="4.71177">
        <ele>591</ele>
        <time>2021-05-16T10:44:28+02:00</time>
      </trkpt>
      <trkpt lat="45.49156" lon="4.71181">
        <ele>588</ele>
        <time>2021-05-16T10:44:33+02:00</time>
      </trkpt>
      <trkpt lat="45.49188" lon="4.71209">
        <ele>576</ele>
        <time>2021-05-16T10:44:38+02:00</time>
      </trkpt>
      <trkpt lat="45.49215" lon="4.71244">
        <ele>564</ele>
        <time>2021-05-16T10:44:43+02:00</time>
      </trkpt>
      <trkpt lat="45.49245" lon="4.7125">
        <ele>562</ele>
        <time>2021-05-16T10:44:48+02:00</time>
      </trkpt>
      <trkpt lat="45.49278" lon="4.71229">
        <ele>564</ele>
        <time>2021-05-16T10:44:53+02:00</time>
      </trkpt>
      <trkpt lat="45.49299" lon="4.71201">
        <ele>567</ele>
        <time>2021-05-16T10:44:58+02:00</time>
      </trkpt>
      <trkpt lat="45.49325" lon="4.71136">
        <ele>575</ele>
        <time>2021-05-16T10:45:03+02:00</time>
      </trkpt>
      <trkpt lat="45.4937" lon="4.71074">
        <ele>573</ele>
        <time>2021-05-16T10:45:08+02:00</time>
      </trkpt>
      <trkpt lat="45.49394" lon="4.71048">
        <ele>570</ele>
        <time>2021-05-16T10:45:13+02:00</time>
      </trkpt>
      <trkpt lat="45.49428" lon="4.71018">
        <ele>566</ele>
        <time>2021-05-16T10:45:18+02:00</time>
      </trkpt>
      <trkpt lat="45.4946" lon="4.7098">
        <ele>566</ele>
        <time>2021-05-16T10:45:23+02:00</time>
      </trkpt>
      <trkpt lat="45.49499" lon="4.70941">
        <ele>563</ele>
        <time>2021-05-16T10:45:28+02:00</time>
      </trkpt>
      <trkpt lat="45.49563" lon="4.70872">
        <ele>559</ele>
        <time>2021-05-16T10:45:33+02:00</time>
      </trkpt>
      <trkpt lat="45.49531" lon="4.70761">
        <ele>560</ele>
        <time>2021-05-16T10:45:38+02:00</time>
      </trkpt>
      <trkpt lat="45.4951" lon="4.70692">
        <ele>563</ele>
        <time>2021-05-16T10:45:43+02:00</time>
      </trkpt>
      <trkpt lat="45.49495" lon="4.70667">
        <ele>565</ele>
        <time>2021-05-16T10:45:48+02:00</time>
      </trkpt>
      <trkpt lat="45.49499" lon="4.70623">
        <ele>564</ele>
        <time>2021-05-16T10:45:53+02:00</time>
      </trkpt>
      <trkpt lat="45.49494" lon="4.70587">
        <ele>565</ele>
        <time>2021-05-16T10:45:58+02:00</time>
      </trkpt>
      <trkpt lat="45.49497" lon="4.70567">
        <ele>564</ele>
        <time>2021-05-16T10:46:03+02:00</time>
      </trkpt>
      <trkpt lat="45.49492" lon="4.70519">
        <ele>562</ele>
        <time>2021-05-16T10:46:08+02:00</time>
      </trkpt>
      <trkpt lat="45.49435" lon="4.70399">
        <ele>563</ele>
        <time>2021-05-16T10:46:13+02:00</time>
      </trkpt>
      <trkpt lat="45.49426" lon="4.70336">
        <ele>560</ele>
        <time>2021-05-16T10:46:18+02:00</time>
      </trkpt>
      <trkpt lat="45.49432" lon="4.7027">
        <ele>560</ele>
        <time>2021-05-16T10:46:23+02:00</time>
      </trkpt>
      <trkpt lat="45.49437" lon="4.70229">
        <ele>561</ele>
        <time>2021-05-16T10:46:28+02:00</time>
      </trkpt>
      <trkpt lat="45.49447" lon="4.70188">
        <ele>562</ele>
        <time>2021-05-16T10:46:33+02:00</time>
      </trkpt>
      <trkpt lat="45.4947" lon="4.70156">
        <ele>561</ele>
        <time>2021-05-16T10:46:38+02:00</time>
      </trkpt>
      <trkpt lat="45.49483" lon="4.70127">
        <ele>562</ele>
        <time>2021-05-16T10:46:43+02:00</time>
      </trkpt>
      <trkpt lat="45.49481" lon="4.701">
        <ele>566</ele>
        <time>2021-05-16T10:46:48+02:00</time>
      </trkpt>
      <trkpt lat="45.49485" lon="4.70056">
        <ele>571</ele>
        <time>2021-05-16T10:46:53+02:00</time>
      </trkpt>
      <trkpt lat="45.49502" lon="4.70028">
        <ele>572</ele>
        <time>2021-05-16T10:46:58+02:00</time>
      </trkpt>
      <trkpt lat="45.49511" lon="4.69982">
        <ele>576</ele>
        <time>2021-05-16T10:47:03+02:00</time>
      </trkpt>
      <trkpt lat="45.4951" lon="4.69922">
        <ele>581</ele>
        <time>2021-05-16T10:47:08+02:00</time>
      </trkpt>
      <trkpt lat="45.49494" lon="4.69905">
        <ele>584</ele>
        <time>2021-05-16T10:47:13+02:00</time>
      </trkpt>
      <trkpt lat="45.49418" lon="4.69884">
        <ele>595</ele>
        <time>2021-05-16T10:47:18+02:00</time>
      </trkpt>
      <trkpt lat="45.49293" lon="4.69847">
        <ele>606</ele>
        <time>2021-05-16T10:47:23+02:00</time>
      </trkpt>
      <trkpt lat="45.49227" lon="4.69819">
        <ele>609</ele>
        <time>2021-05-16T10:47:28+02:00</time>
      </trkpt>
      <trkpt lat="45.49189" lon="4.69806">
        <ele>611</ele>
        <time>2021-05-16T10:47:33+02:00</time>
      </trkpt>
      <trkpt lat="45.49135" lon="4.69789">
        <ele>621</ele>
        <time>2021-05-16T10:47:38+02:00</time>
      </trkpt>
      <trkpt lat="45.49111" lon="4.69772">
        <ele>627</ele>
        <time>2021-05-16T10:47:43+02:00</time>
      </trkpt>
      <trkpt lat="45.49148" lon="4.69724">
        <ele>618</ele>
        <time>2021-05-16T10:47:48+02:00</time>
      </trkpt>
      <trkpt lat="45.49168" lon="4.69703">
        <ele>615</ele>
        <time>2021-05-16T10:47:53+02:00</time>
      </trkpt>
      <trkpt lat="45.49197" lon="4.69669">
        <ele>609</ele>
        <time>2021-05-16T10:47:58+02:00</time>
      </trkpt>
      <trkpt lat="45.49203" lon="4.69645">
        <ele>611</ele>
        <time>2021-05-16T10:48:03+02:00</time>
      </trkpt>
      <trkpt lat="45.49194" lon="4.69601">
        <ele>622</ele>
        <time>2021-05-16T10:48:08+02:00</time>
      </trkpt>
      <trkpt lat="45.49182" lon="4.69568">
        <ele>633</ele>
        <time>2021-05-16T10:48:13+02:00</time>
      </trkpt>
      <trkpt lat="45.49186" lon="4.69538">
        <ele>637</ele>
        <time>2021-05-16T10:48:18+02:00</time>
      </trkpt>
      <trkpt lat="45.49224" lon="4.69469">
        <ele>638</ele>
        <time>2021-05-16T10:48:23+02:00</time>
      </trkpt>
      <trkpt lat="45.49249" lon="4.69399">
        <ele>643</ele>
        <time>2021-05-16T10:48:28+02:00</time>
      </trkpt>
      <trkpt lat="45.49255" lon="4.69339">
        <ele>646</ele>
        <time>2021-05-16T10:48:33+02:00</time>
      </trkpt>
      <trkpt lat="45.49251" lon="4.69307">
        <ele>649</ele>
        <time>2021-05-16T10:48:38+02:00</time>
      </trkpt>
      <trkpt lat="45.49231" lon="4.69287">
        <ele>658</ele>
        <time>2021-05-16T10:48:43+02:00</time>
      </trkpt>
      <trkpt lat="45.4923" lon="4.69253">
        <ele>661</ele>
        <time>2021-05-16T10:48:48+02:00</time>
      </trkpt>
      <trkpt lat="45.49269" lon="4.6922">
        <ele>655</ele>
        <time>2021-05-16T10:48:53+02:00</time>
      </trkpt>
      <trkpt lat="45.49311" lon="4.69188">
        <ele>652</ele>
        <time>2021-05-16T10:48:58+02:00</time>
      </trkpt>
      <trkpt lat="45.49417" lon="4.69172">
        <ele>630</ele>
        <time>2021-05-16T10:49:03+02:00</time>
      </trkpt>
      <trkpt lat="45.49517" lon="4.69116">
        <ele>617</ele>
        <time>2021-05-16T10:49:08+02:00</time>
      </trkpt>
      <trkpt lat="45.49755" lon="4.68999">
        <ele>579</ele>
        <time>2021-05-16T10:49:13+02:00</time>
      </trkpt>
      <trkpt lat="45.49874" lon="4.68849">
        <ele>555</ele>
        <time>2021-05-16T10:49:18+02:00</time>
      </trkpt>
      <trkpt lat="45.50001" lon="4.68823">
        <ele>525</ele>
        <time>2021-05-16T10:49:23+02:00</time>
      </trkpt>
      <trkpt lat="45.50116" lon="4.68816">
        <ele>502</ele>
        <time>2021-05-16T10:49:28+02:00</time>
      </trkpt>
      <trkpt lat="45.50195" lon="4.68777">
        <ele>487</ele>
        <time>2021-05-16T10:49:33+02:00</time>
      </trkpt>
      <trkpt lat="45.50237" lon="4.68827">
        <ele>483</ele>
        <time>2021-05-16T10:49:38+02:00</time>
      </trkpt>
      <trkpt lat="45.5024" lon="4.68745">
        <ele>479</ele>
        <time>2021-05-16T10:49:43+02:00</time>
      </trkpt>
      <trkpt lat="45.50284" lon="4.68772">
        <ele>474</ele>
        <time>2021-05-16T10:49:48+02:00</time>
      </trkpt>
      <trkpt lat="45.50314" lon="4.68809">
        <ele>471</ele>
        <time>2021-05-16T10:49:53+02:00</time>
      </trkpt>
      <trkpt lat="45.50345" lon="4.68853">
        <ele>468</ele>
        <time>2021-05-16T10:49:58+02:00</time>
      </trkpt>
      <trkpt lat="45.50406" lon="4.68838">
        <ele>464</ele>
        <time>2021-05-16T10:50:03+02:00</time>
      </trkpt>
      <trkpt lat="45.5049" lon="4.68827">
        <ele>458</ele>
        <time>2021-05-16T10:50:08+02:00</time>
      </trkpt>
      <trkpt lat="45.50525" lon="4.68782">
        <ele>453</ele>
        <time>2021-05-16T10:50:13+02:00</time>
      </trkpt>
      <trkpt lat="45.50526" lon="4.68742">
        <ele>451</ele>
        <time>2021-05-16T10:50:18+02:00</time>
      </trkpt>
      <trkpt lat="45.50503" lon="4.68668">
        <ele>446</ele>
        <time>2021-05-16T10:50:23+02:00</time>
      </trkpt>
      <trkpt lat="45.50528" lon="4.6863">
        <ele>443</ele>
        <time>2021-05-16T10:50:28+02:00</time>
      </trkpt>
      <trkpt lat="45.50567" lon="4.68531">
        <ele>433</ele>
        <time>2021-05-16T10:50:33+02:00</time>
      </trkpt>
      <trkpt lat="45.50591" lon="4.68387">
        <ele>419</ele>
        <time>2021-05-16T10:50:38+02:00</time>
      </trkpt>
      <trkpt lat="45.50612" lon="4.68257">
        <ele>410</ele>
        <time>2021-05-16T10:50:43+02:00</time>
      </trkpt>
      <trkpt lat="45.50616" lon="4.68175">
        <ele>406</ele>
        <time>2021-05-16T10:50:48+02:00</time>
      </trkpt>
      <trkpt lat="45.50625" lon="4.68129">
        <ele>404</ele>
        <time>2021-05-16T10:50:53+02:00</time>
      </trkpt>
      <trkpt lat="45.50636" lon="4.68094">
        <ele>401</ele>
        <time>2021-05-16T10:50:58+02:00</time>
      </trkpt>
      <trkpt lat="45.50671" lon="4.68023">
        <ele>393</ele>
        <time>2021-05-16T10:51:03+02:00</time>
      </trkpt>
      <trkpt lat="45.50701" lon="4.67975">
        <ele>392</ele>
        <time>2021-05-16T10:51:08+02:00</time>
      </trkpt>
      <trkpt lat="45.50717" lon="4.67921">
        <ele>388</ele>
        <time>2021-05-16T10:51:13+02:00</time>
      </trkpt>
      <trkpt lat="45.50732" lon="4.67873">
        <ele>382</ele>
        <time>2021-05-16T10:51:18+02:00</time>
      </trkpt>
      <trkpt lat="45.50755" lon="4.67787">
        <ele>373</ele>
        <time>2021-05-16T10:51:23+02:00</time>
      </trkpt>
      <trkpt lat="45.50746" lon="4.67764">
        <ele>371</ele>
        <time>2021-05-16T10:51:28+02:00</time>
      </trkpt>
      <trkpt lat="45.50748" lon="4.67742">
        <ele>372</ele>
        <time>2021-05-16T10:51:33+02:00</time>
      </trkpt>
      <trkpt lat="45.50771" lon="4.6774">
        <ele>372</ele>
        <time>2021-05-16T10:51:38+02:00</time>
      </trkpt>
      <trkpt lat="45.50877" lon="4.67727">
        <ele>371</ele>
        <time>2021-05-16T10:51:43+02:00</time>
      </trkpt>
      <trkpt lat="45.50979" lon="4.67703">
        <ele>369</ele>
        <time>2021-05-16T10:51:48+02:00</time>
      </trkpt>
      <trkpt lat="45.5108" lon="4.67658">
        <ele>365</ele>
        <time>2021-05-16T10:51:53+02:00</time>
      </trkpt>
      <trkpt lat="45.51196" lon="4.67598">
        <ele>368</ele>
        <time>2021-05-16T10:51:58+02:00</time>
      </trkpt>
      <trkpt lat="45.51271" lon="4.67557">
        <ele>370</ele>
        <time>2021-05-16T10:52:03+02:00</time>
      </trkpt>
      <trkpt lat="45.5132" lon="4.67557">
        <ele>366</ele>
        <time>2021-05-16T10:52:08+02:00</time>
      </trkpt>
      <trkpt lat="45.51398" lon="4.6756">
        <ele>360</ele>
        <time>2021-05-16T10:52:13+02:00</time>
      </trkpt>
      <trkpt lat="45.51416" lon="4.67553">
        <ele>360</ele>
        <time>2021-05-16T10:52:18+02:00</time>
      </trkpt>
      <trkpt lat="45.51431" lon="4.67529">
        <ele>362</ele>
        <time>2021-05-16T10:52:23+02:00</time>
      </trkpt>
      <trkpt lat="45.51433" lon="4.67504">
        <ele>365</ele>
        <time>2021-05-16T10:52:28+02:00</time>
      </trkpt>
      <trkpt lat="45.51436" lon="4.6745">
        <ele>365</ele>
        <time>2021-05-16T10:52:33+02:00</time>
      </trkpt>
      <trkpt lat="45.51411" lon="4.67396">
        <ele>367</ele>
        <time>2021-05-16T10:52:38+02:00</time>
      </trkpt>
      <trkpt lat="45.51391" lon="4.6736">
        <ele>368</ele>
        <time>2021-05-16T10:52:43+02:00</time>
      </trkpt>
      <trkpt lat="45.51367" lon="4.673">
        <ele>368</ele>
        <time>2021-05-16T10:52:48+02:00</time>
      </trkpt>
      <trkpt lat="45.51347" lon="4.6727">
        <ele>366</ele>
        <time>2021-05-16T10:52:53+02:00</time>
      </trkpt>
      <trkpt lat="45.51322" lon="4.67241">
        <ele>366</ele>
        <time>2021-05-16T10:52:58+02:00</time>
      </trkpt>
      <trkpt lat="45.51321" lon="4.6722">
        <ele>367</ele>
        <time>2021-05-16T10:53:03+02:00</time>
      </trkpt>
      <trkpt lat="45.51341" lon="4.67219">
        <ele>367</ele>
        <time>2021-05-16T10:53:08+02:00</time>
      </trkpt>
      <trkpt lat="45.51398" lon="4.67274">
        <ele>367</ele>
        <time>2021-05-16T10:53:13+02:00</time>
      </trkpt>
      <trkpt lat="45.51445" lon="4.67343">
        <ele>365</ele>
        <time>2021-05-16T10:53:18+02:00</time>
      </trkpt>
      <trkpt lat="45.51481" lon="4.67377">
        <ele>365</ele>
        <time>2021-05-16T10:53:23+02:00</time>
      </trkpt>
      <trkpt lat="45.51504" lon="4.67381">
        <ele>364</ele>
        <time>2021-05-16T10:53:28+02:00</time>
      </trkpt>
      <trkpt lat="45.51538" lon="4.67353">
        <ele>372</ele>
        <time>2021-05-16T10:53:33+02:00</time>
      </trkpt>
      <trkpt lat="45.51577" lon="4.67298">
        <ele>381</ele>
        <time>2021-05-16T10:53:38+02:00</time>
      </trkpt>
      <trkpt lat="45.51611" lon="4.67263">
        <ele>387</ele>
        <time>2021-05-16T10:53:43+02:00</time>
      </trkpt>
      <trkpt lat="45.51621" lon="4.67278">
        <ele>386</ele>
        <time>2021-05-16T10:53:48+02:00</time>
      </trkpt>
      <trkpt lat="45.51612" lon="4.67347">
        <ele>381</ele>
        <time>2021-05-16T10:53:53+02:00</time>
      </trkpt>
      <trkpt lat="45.51604" lon="4.67407">
        <ele>378</ele>
        <time>2021-05-16T10:53:58+02:00</time>
      </trkpt>
      <trkpt lat="45.51601" lon="4.67452">
        <ele>378</ele>
        <time>2021-05-16T10:54:03+02:00</time>
      </trkpt>
      <trkpt lat="45.51607" lon="4.67492">
        <ele>378</ele>
        <time>2021-05-16T10:54:08+02:00</time>
      </trkpt>
      <trkpt lat="45.51627" lon="4.67499">
        <ele>381</ele>
        <time>2021-05-16T10:54:13+02:00</time>
      </trkpt>
      <trkpt lat="45.5165" lon="4.67434">
        <ele>387</ele>
        <time>2021-05-16T10:54:18+02:00</time>
      </trkpt>
      <trkpt lat="45.51677" lon="4.67366">
        <ele>392</ele>
        <time>2021-05-16T10:54:23+02:00</time>
      </trkpt>
      <trkpt lat="45.51707" lon="4.67324">
        <ele>395</ele>
        <time>2021-05-16T10:54:28+02:00</time>
      </trkpt>
      <trkpt lat="45.51725" lon="4.67292">
        <ele>398</ele>
        <time>2021-05-16T10:54:33+02:00</time>
      </trkpt>
      <trkpt lat="45.51737" lon="4.67255">
        <ele>400</ele>
        <time>2021-05-16T10:54:38+02:00</time>
      </trkpt>
      <trkpt lat="45.51783" lon="4.67199">
        <ele>408</ele>
        <time>2021-05-16T10:54:43+02:00</time>
      </trkpt>
      <trkpt lat="45.51833" lon="4.6707">
        <ele>421</ele>
        <time>2021-05-16T10:54:48+02:00</time>
      </trkpt>
      <trkpt lat="45.51839" lon="4.67008">
        <ele>425</ele>
        <time>2021-05-16T10:54:53+02:00</time>
      </trkpt>
      <trkpt lat="45.51846" lon="4.66926">
        <ele>428</ele>
        <time>2021-05-16T10:54:58+02:00</time>
      </trkpt>
      <trkpt lat="45.51816" lon="4.6692">
        <ele>428</ele>
        <time>2021-05-16T10:55:03+02:00</time>
      </trkpt>
      <trkpt lat="45.51768" lon="4.66909">
        <ele>427</ele>
        <time>2021-05-16T10:55:08+02:00</time>
      </trkpt>
      <trkpt lat="45.51744" lon="4.66893">
        <ele>426</ele>
        <time>2021-05-16T10:55:13+02:00</time>
      </trkpt>
      <trkpt lat="45.51732" lon="4.66866">
        <ele>427</ele>
        <time>2021-05-16T10:55:18+02:00</time>
      </trkpt>
      <trkpt lat="45.51675" lon="4.66775">
        <ele>428</ele>
        <time>2021-05-16T10:55:23+02:00</time>
      </trkpt>
      <trkpt lat="45.5151" lon="4.66818">
        <ele>428</ele>
        <time>2021-05-16T10:55:28+02:00</time>
      </trkpt>
      <trkpt lat="45.51484" lon="4.66809">
        <ele>429</ele>
        <time>2021-05-16T10:55:33+02:00</time>
      </trkpt>
      <trkpt lat="45.51413" lon="4.66787">
        <ele>429</ele>
        <time>2021-05-16T10:55:38+02:00</time>
      </trkpt>
      <trkpt lat="45.51299" lon="4.66718">
        <ele>433</ele>
        <time>2021-05-16T10:55:43+02:00</time>
      </trkpt>
      <trkpt lat="45.51277" lon="4.66691">
        <ele>434</ele>
        <time>2021-05-16T10:55:48+02:00</time>
      </trkpt>
      <trkpt lat="45.5126" lon="4.66677">
        <ele>433</ele>
        <time>2021-05-16T10:55:53+02:00</time>
      </trkpt>
      <trkpt lat="45.51242" lon="4.66671">
        <ele>431</ele>
        <time>2021-05-16T10:55:58+02:00</time>
      </trkpt>
      <trkpt lat="45.51207" lon="4.66682">
        <ele>425</ele>
        <time>2021-05-16T10:56:03+02:00</time>
      </trkpt>
      <trkpt lat="45.51186" lon="4.66682">
        <ele>422</ele>
        <time>2021-05-16T10:56:08+02:00</time>
      </trkpt>
      <trkpt lat="45.51164" lon="4.66655">
        <ele>422</ele>
        <time>2021-05-16T10:56:13+02:00</time>
      </trkpt>
      <trkpt lat="45.51135" lon="4.6657">
        <ele>428</ele>
        <time>2021-05-16T10:56:18+02:00</time>
      </trkpt>
      <trkpt lat="45.51108" lon="4.6659">
        <ele>425</ele>
        <time>2021-05-16T10:56:23+02:00</time>
      </trkpt>
      <trkpt lat="45.51089" lon="4.66641">
        <ele>416</ele>
        <time>2021-05-16T10:56:28+02:00</time>
      </trkpt>
      <trkpt lat="45.51069" lon="4.66675">
        <ele>409</ele>
        <time>2021-05-16T10:56:33+02:00</time>
      </trkpt>
      <trkpt lat="45.51034" lon="4.6668">
        <ele>405</ele>
        <time>2021-05-16T10:56:38+02:00</time>
      </trkpt>
      <trkpt lat="45.50986" lon="4.66621">
        <ele>407</ele>
        <time>2021-05-16T10:56:43+02:00</time>
      </trkpt>
      <trkpt lat="45.50958" lon="4.66557">
        <ele>411</ele>
        <time>2021-05-16T10:56:48+02:00</time>
      </trkpt>
      <trkpt lat="45.50935" lon="4.66515">
        <ele>414</ele>
        <time>2021-05-16T10:56:53+02:00</time>
      </trkpt>
      <trkpt lat="45.50915" lon="4.6655">
        <ele>408</ele>
        <time>2021-05-16T10:56:58+02:00</time>
      </trkpt>
      <trkpt lat="45.5088" lon="4.66562">
        <ele>410</ele>
        <time>2021-05-16T10:57:03+02:00</time>
      </trkpt>
      <trkpt lat="45.50774" lon="4.66507">
        <ele>424</ele>
        <time>2021-05-16T10:57:08+02:00</time>
      </trkpt>
      <trkpt lat="45.50708" lon="4.66472">
        <ele>431</ele>
        <time>2021-05-16T10:57:13+02:00</time>
      </trkpt>
      <trkpt lat="45.50627" lon="4.66407">
        <ele>440</ele>
        <time>2021-05-16T10:57:18+02:00</time>
      </trkpt>
      <trkpt lat="45.50608" lon="4.66391">
        <ele>443</ele>
        <time>2021-05-16T10:57:23+02:00</time>
      </trkpt>
      <trkpt lat="45.50585" lon="4.66389">
        <ele>445</ele>
        <time>2021-05-16T10:57:28+02:00</time>
      </trkpt>
      <trkpt lat="45.50531" lon="4.66359">
        <ele>452</ele>
        <time>2021-05-16T10:57:33+02:00</time>
      </trkpt>
      <trkpt lat="45.50469" lon="4.66315">
        <ele>461</ele>
        <time>2021-05-16T10:57:38+02:00</time>
      </trkpt>
      <trkpt lat="45.5045" lon="4.66304">
        <ele>464</ele>
        <time>2021-05-16T10:57:43+02:00</time>
      </trkpt>
      <trkpt lat="45.50419" lon="4.66338">
        <ele>467</ele>
        <time>2021-05-16T10:57:48+02:00</time>
      </trkpt>
      <trkpt lat="45.50358" lon="4.66379">
        <ele>473</ele>
        <time>2021-05-16T10:57:53+02:00</time>
      </trkpt>
      <trkpt lat="45.50317" lon="4.66435">
        <ele>476</ele>
        <time>2021-05-16T10:57:58+02:00</time>
      </trkpt>
      <trkpt lat="45.50304" lon="4.66466">
        <ele>477</ele>
        <time>2021-05-16T10:58:03+02:00</time>
      </trkpt>
      <trkpt lat="45.50277" lon="4.66491">
        <ele>478</ele>
        <time>2021-05-16T10:58:08+02:00</time>
      </trkpt>
      <trkpt lat="45.50243" lon="4.66509">
        <ele>479</ele>
        <time>2021-05-16T10:58:13+02:00</time>
      </trkpt>
      <trkpt lat="45.50164" lon="4.66525">
        <ele>476</ele>
        <time>2021-05-16T10:58:18+02:00</time>
      </trkpt>
      <trkpt lat="45.50137" lon="4.66524">
        <ele>478</ele>
        <time>2021-05-16T10:58:23+02:00</time>
      </trkpt>
      <trkpt lat="45.50087" lon="4.66547">
        <ele>481</ele>
        <time>2021-05-16T10:58:28+02:00</time>
      </trkpt>
      <trkpt lat="45.50034" lon="4.66626">
        <ele>484</ele>
        <time>2021-05-16T10:58:33+02:00</time>
      </trkpt>
      <trkpt lat="45.49995" lon="4.66668">
        <ele>489</ele>
        <time>2021-05-16T10:58:38+02:00</time>
      </trkpt>
      <trkpt lat="45.49976" lon="4.66701">
        <ele>489</ele>
        <time>2021-05-16T10:58:43+02:00</time>
      </trkpt>
      <trkpt lat="45.4992" lon="4.66734">
        <ele>494</ele>
        <time>2021-05-16T10:58:48+02:00</time>
      </trkpt>
      <trkpt lat="45.49877" lon="4.66748">
        <ele>494</ele>
        <time>2021-05-16T10:58:53+02:00</time>
      </trkpt>
      <trkpt lat="45.49831" lon="4.66744">
        <ele>495</ele>
        <time>2021-05-16T10:58:58+02:00</time>
      </trkpt>
      <trkpt lat="45.49779" lon="4.66707">
        <ele>495</ele>
        <time>2021-05-16T10:59:03+02:00</time>
      </trkpt>
      <trkpt lat="45.49719" lon="4.66674">
        <ele>494</ele>
        <time>2021-05-16T10:59:08+02:00</time>
      </trkpt>
      <trkpt lat="45.4967" lon="4.66619">
        <ele>497</ele>
        <time>2021-05-16T10:59:13+02:00</time>
      </trkpt>
      <trkpt lat="45.49649" lon="4.66589">
        <ele>498</ele>
        <time>2021-05-16T10:59:18+02:00</time>
      </trkpt>
      <trkpt lat="45.49633" lon="4.66526">
        <ele>500</ele>
        <time>2021-05-16T10:59:23+02:00</time>
      </trkpt>
      <trkpt lat="45.49621" lon="4.66495">
        <ele>502</ele>
        <time>2021-05-16T10:59:28+02:00</time>
      </trkpt>
      <trkpt lat="45.49552" lon="4.66495">
        <ele>501</ele>
        <time>2021-05-16T10:59:33+02:00</time>
      </trkpt>
      <trkpt lat="45.49445" lon="4.66482">
        <ele>511</ele>
        <time>2021-05-16T10:59:38+02:00</time>
      </trkpt>
      <trkpt lat="45.49376" lon="4.66465">
        <ele>518</ele>
        <time>2021-05-16T10:59:43+02:00</time>
      </trkpt>
      <trkpt lat="45.49294" lon="4.66407">
        <ele>525</ele>
        <time>2021-05-16T10:59:48+02:00</time>
      </trkpt>
      <trkpt lat="45.49258" lon="4.66416">
        <ele>526</ele>
        <time>2021-05-16T10:59:53+02:00</time>
      </trkpt>
      <trkpt lat="45.49127" lon="4.66383">
        <ele>526</ele>
        <time>2021-05-16T10:59:58+02:00</time>
      </trkpt>
      <trkpt lat="45.4907" lon="4.66358">
        <ele>522</ele>
        <time>2021-05-16T11:00:03+02:00</time>
      </trkpt>
      <trkpt lat="45.49009" lon="4.66373">
        <ele>522</ele>
        <time>2021-05-16T11:00:08+02:00</time>
      </trkpt>
      <trkpt lat="45.48944" lon="4.66398">
        <ele>522</ele>
        <time>2021-05-16T11:00:13+02:00</time>
      </trkpt>
      <trkpt lat="45.48894" lon="4.66438">
        <ele>526</ele>
        <time>2021-05-16T11:00:18+02:00</time>
      </trkpt>
      <trkpt lat="45.48821" lon="4.66448">
        <ele>526</ele>
        <time>2021-05-16T11:00:23+02:00</time>
      </trkpt>
      <trkpt lat="45.48756" lon="4.66463">
        <ele>524</ele>
        <time>2021-05-16T11:00:28+02:00</time>
      </trkpt>
      <trkpt lat="45.48703" lon="4.6648">
        <ele>521</ele>
        <time>2021-05-16T11:00:33+02:00</time>
      </trkpt>
      <trkpt lat="45.48619" lon="4.66551">
        <ele>510</ele>
        <time>2021-05-16T11:00:38+02:00</time>
      </trkpt>
      <trkpt lat="45.48592" lon="4.66624">
        <ele>503</ele>
        <time>2021-05-16T11:00:43+02:00</time>
      </trkpt>
      <trkpt lat="45.48586" lon="4.66696">
        <ele>504</ele>
        <time>2021-05-16T11:00:48+02:00</time>
      </trkpt>
      <trkpt lat="45.48575" lon="4.66748">
        <ele>506</ele>
        <time>2021-05-16T11:00:53+02:00</time>
      </trkpt>
      <trkpt lat="45.48521" lon="4.66875">
        <ele>503</ele>
        <time>2021-05-16T11:00:58+02:00</time>
      </trkpt>
      <trkpt lat="45.48503" lon="4.66849">
        <ele>499</ele>
        <time>2021-05-16T11:01:03+02:00</time>
      </trkpt>
      <trkpt lat="45.48484" lon="4.66832">
        <ele>499</ele>
        <time>2021-05-16T11:01:08+02:00</time>
      </trkpt>
      <trkpt lat="45.48434" lon="4.66881">
        <ele>504</ele>
        <time>2021-05-16T11:01:13+02:00</time>
      </trkpt>
      <trkpt lat="45.48393" lon="4.66918">
        <ele>508</ele>
        <time>2021-05-16T11:01:18+02:00</time>
      </trkpt>
      <trkpt lat="45.48345" lon="4.66986">
        <ele>510</ele>
        <time>2021-05-16T11:01:23+02:00</time>
      </trkpt>
      <trkpt lat="45.48323" lon="4.67036">
        <ele>509</ele>
        <time>2021-05-16T11:01:28+02:00</time>
      </trkpt>
      <trkpt lat="45.48256" lon="4.66999">
        <ele>523</ele>
        <time>2021-05-16T11:01:33+02:00</time>
      </trkpt>
      <trkpt lat="45.48183" lon="4.66943">
        <ele>537</ele>
        <time>2021-05-16T11:01:38+02:00</time>
      </trkpt>
      <trkpt lat="45.48129" lon="4.66879">
        <ele>548</ele>
        <time>2021-05-16T11:01:43+02:00</time>
      </trkpt>
      <trkpt lat="45.48098" lon="4.66854">
        <ele>553</ele>
        <time>2021-05-16T11:01:48+02:00</time>
      </trkpt>
      <trkpt lat="45.48074" lon="4.66845">
        <ele>557</ele>
        <time>2021-05-16T11:01:53+02:00</time>
      </trkpt>
      <trkpt lat="45.48056" lon="4.66853">
        <ele>561</ele>
        <time>2021-05-16T11:01:58+02:00</time>
      </trkpt>
      <trkpt lat="45.48062" lon="4.66886">
        <ele>561</ele>
        <time>2021-05-16T11:02:03+02:00</time>
      </trkpt>
      <trkpt lat="45.48029" lon="4.66903">
        <ele>570</ele>
        <time>2021-05-16T11:02:08+02:00</time>
      </trkpt>
      <trkpt lat="45.48025" lon="4.66916">
        <ele>571</ele>
        <time>2021-05-16T11:02:13+02:00</time>
      </trkpt>
      <trkpt lat="45.48007" lon="4.66918">
        <ele>576</ele>
        <time>2021-05-16T11:02:18+02:00</time>
      </trkpt>
      <trkpt lat="45.47974" lon="4.66918">
        <ele>584</ele>
        <time>2021-05-16T11:02:23+02:00</time>
      </trkpt>
      <trkpt lat="45.47931" lon="4.66898">
        <ele>595</ele>
        <time>2021-05-16T11:02:28+02:00</time>
      </trkpt>
      <trkpt lat="45.47888" lon="4.66871">
        <ele>608</ele>
        <time>2021-05-16T11:02:33+02:00</time>
      </trkpt>
      <trkpt lat="45.47838" lon="4.6668">
        <ele>627</ele>
        <time>2021-05-16T11:02:38+02:00</time>
      </trkpt>
      <trkpt lat="45.47809" lon="4.66621">
        <ele>631</ele>
        <time>2021-05-16T11:02:43+02:00</time>
      </trkpt>
      <trkpt lat="45.47727" lon="4.66738">
        <ele>639</ele>
        <time>2021-05-16T11:02:48+02:00</time>
      </trkpt>
      <trkpt lat="45.47685" lon="4.66792">
        <ele>641</ele>
        <time>2021-05-16T11:02:53+02:00</time>
      </trkpt>
      <trkpt lat="45.47659" lon="4.66849">
        <ele>647</ele>
        <time>2021-05-16T11:02:58+02:00</time>
      </trkpt>
      <trkpt lat="45.47612" lon="4.66905">
        <ele>653</ele>
        <time>2021-05-16T11:03:03+02:00</time>
      </trkpt>
      <trkpt lat="45.47548" lon="4.66956">
        <ele>658</ele>
        <time>2021-05-16T11:03:08+02:00</time>
      </trkpt>
      <trkpt lat="45.47467" lon="4.67021">
        <ele>662</ele>
        <time>2021-05-16T11:03:13+02:00</time>
      </trkpt>
      <trkpt lat="45.47406" lon="4.67068">
        <ele>663</ele>
        <time>2021-05-16T11:03:18+02:00</time>
      </trkpt>
      <trkpt lat="45.4737" lon="4.67074">
        <ele>662</ele>
        <time>2021-05-16T11:03:23+02:00</time>
      </trkpt>
      <trkpt lat="45.4733" lon="4.67115">
        <ele>660</ele>
        <time>2021-05-16T11:03:28+02:00</time>
      </trkpt>
      <trkpt lat="45.47306" lon="4.67153">
        <ele>658</ele>
        <time>2021-05-16T11:03:33+02:00</time>
      </trkpt>
      <trkpt lat="45.47294" lon="4.67186">
        <ele>658</ele>
        <time>2021-05-16T11:03:38+02:00</time>
      </trkpt>
      <trkpt lat="45.47096" lon="4.67233">
        <ele>668</ele>
        <time>2021-05-16T11:03:43+02:00</time>
      </trkpt>
      <trkpt lat="45.47119" lon="4.67274">
        <ele>676</ele>
        <time>2021-05-16T11:03:48+02:00</time>
      </trkpt>
      <trkpt lat="45.4715" lon="4.67313">
        <ele>682</ele>
        <time>2021-05-16T11:03:53+02:00</time>
      </trkpt>
      <trkpt lat="45.47164" lon="4.67332">
        <ele>684</ele>
        <time>2021-05-16T11:03:58+02:00</time>
      </trkpt>
      <trkpt lat="45.47161" lon="4.67368">
        <ele>686</ele>
        <time>2021-05-16T11:04:03+02:00</time>
      </trkpt>
      <trkpt lat="45.47142" lon="4.6742">
        <ele>690</ele>
        <time>2021-05-16T11:04:08+02:00</time>
      </trkpt>
      <trkpt lat="45.47102" lon="4.67453">
        <ele>696</ele>
        <time>2021-05-16T11:04:13+02:00</time>
      </trkpt>
      <trkpt lat="45.47042" lon="4.67486">
        <ele>700</ele>
        <time>2021-05-16T11:04:18+02:00</time>
      </trkpt>
      <trkpt lat="45.47015" lon="4.67576">
        <ele>703</ele>
        <time>2021-05-16T11:04:23+02:00</time>
      </trkpt>
      <trkpt lat="45.46996" lon="4.67681">
        <ele>701</ele>
        <time>2021-05-16T11:04:28+02:00</time>
      </trkpt>
      <trkpt lat="45.46991" lon="4.67759">
        <ele>702</ele>
        <time>2021-05-16T11:04:33+02:00</time>
      </trkpt>
      <trkpt lat="45.46985" lon="4.6787">
        <ele>706</ele>
        <time>2021-05-16T11:04:38+02:00</time>
      </trkpt>
      <trkpt lat="45.46996" lon="4.68022">
        <ele>708</ele>
        <time>2021-05-16T11:04:43+02:00</time>
      </trkpt>
      <trkpt lat="45.47017" lon="4.68117">
        <ele>704</ele>
        <time>2021-05-16T11:04:48+02:00</time>
      </trkpt>
      <trkpt lat="45.47029" lon="4.68196">
        <ele>701</ele>
        <time>2021-05-16T11:04:53+02:00</time>
      </trkpt>
      <trkpt lat="45.47035" lon="4.68257">
        <ele>702</ele>
        <time>2021-05-16T11:04:58+02:00</time>
      </trkpt>
      <trkpt lat="45.47035" lon="4.68332">
        <ele>700</ele>
        <time>2021-05-16T11:05:03+02:00</time>
      </trkpt>
      <trkpt lat="45.47029" lon="4.68369">
        <ele>700</ele>
        <time>2021-05-16T11:05:08+02:00</time>
      </trkpt>
      <trkpt lat="45.47049" lon="4.68451">
        <ele>696</ele>
        <time>2021-05-16T11:05:13+02:00</time>
      </trkpt>
      <trkpt lat="45.47062" lon="4.68522">
        <ele>695</ele>
        <time>2021-05-16T11:05:18+02:00</time>
      </trkpt>
      <trkpt lat="45.47066" lon="4.68574">
        <ele>693</ele>
        <time>2021-05-16T11:05:23+02:00</time>
      </trkpt>
      <trkpt lat="45.47063" lon="4.68663">
        <ele>690</ele>
        <time>2021-05-16T11:05:28+02:00</time>
      </trkpt>
      <trkpt lat="45.47068" lon="4.68722">
        <ele>689</ele>
        <time>2021-05-16T11:05:33+02:00</time>
      </trkpt>
      <trkpt lat="45.4708" lon="4.68825">
        <ele>688</ele>
        <time>2021-05-16T11:05:38+02:00</time>
      </trkpt>
      <trkpt lat="45.4709" lon="4.68871">
        <ele>689</ele>
        <time>2021-05-16T11:05:43+02:00</time>
      </trkpt>
      <trkpt lat="45.47107" lon="4.68906">
        <ele>690</ele>
        <time>2021-05-16T11:05:48+02:00</time>
      </trkpt>
      <trkpt lat="45.47187" lon="4.68944">
        <ele>683</ele>
        <time>2021-05-16T11:05:53+02:00</time>
      </trkpt>
      <trkpt lat="45.4725" lon="4.68982">
        <ele>680</ele>
        <time>2021-05-16T11:05:58+02:00</time>
      </trkpt>
      <trkpt lat="45.47261" lon="4.69011">
        <ele>678</ele>
        <time>2021-05-16T11:06:03+02:00</time>
      </trkpt>
      <trkpt lat="45.47281" lon="4.691">
        <ele>675</ele>
        <time>2021-05-16T11:06:08+02:00</time>
      </trkpt>
      <trkpt lat="45.47307" lon="4.69213">
        <ele>673</ele>
        <time>2021-05-16T11:06:13+02:00</time>
      </trkpt>
      <trkpt lat="45.47357" lon="4.69278">
        <ele>669</ele>
        <time>2021-05-16T11:06:18+02:00</time>
      </trkpt>
      <trkpt lat="45.47393" lon="4.69304">
        <ele>667</ele>
        <time>2021-05-16T11:06:23+02:00</time>
      </trkpt>
      <trkpt lat="45.47484" lon="4.69334">
        <ele>663</ele>
        <time>2021-05-16T11:06:28+02:00</time>
      </trkpt>
      <trkpt lat="45.47522" lon="4.69353">
        <ele>663</ele>
        <time>2021-05-16T11:06:33+02:00</time>
      </trkpt>
      <trkpt lat="45.47548" lon="4.69375">
        <ele>662</ele>
        <time>2021-05-16T11:06:38+02:00</time>
      </trkpt>
      <trkpt lat="45.47548" lon="4.69465">
        <ele>657</ele>
        <time>2021-05-16T11:06:43+02:00</time>
      </trkpt>
      <trkpt lat="45.47556" lon="4.69543">
        <ele>648</ele>
        <time>2021-05-16T11:06:48+02:00</time>
      </trkpt>
      <trkpt lat="45.47569" lon="4.69583">
        <ele>642</ele>
        <time>2021-05-16T11:06:53+02:00</time>
      </trkpt>
      <trkpt lat="45.47605" lon="4.69656">
        <ele>632</ele>
        <time>2021-05-16T11:06:58+02:00</time>
      </trkpt>
      <trkpt lat="45.47623" lon="4.69686">
        <ele>628</ele>
        <time>2021-05-16T11:07:03+02:00</time>
      </trkpt>
      <trkpt lat="45.47652" lon="4.69719">
        <ele>625</ele>
        <time>2021-05-16T11:07:08+02:00</time>
      </trkpt>
      <trkpt lat="45.47682" lon="4.69731">
        <ele>624</ele>
        <time>2021-05-16T11:07:13+02:00</time>
      </trkpt>
    </trkseg>
  </trk>
</gpx>